This is the latest recevied weather packets stored in our database for station/object N9XTN-3. If no packets are shown the sender has not sent any weather packets the latest 10 day(s).
| Time | Temp. | Humidity | Pressure | Rain* | Wind** | Luminosity | Snow |
|---|---|---|---|---|---|---|---|
| 1777621837 | 3.33° C | 77% | 1017.6 hPa | 0 mm | - | - | - |
| 1777620017 | 3.33° C | 75% | 1017.8 hPa | 0 mm | - | - | - |
| 1777618217 | 4.44° C | 73% | 1018.1 hPa | 0 mm | - | - | - |
| 1777617617 | 4.44° C | 74% | 1018.2 hPa | 0 mm | - | - | - |
| 1777615217 | 5.56° C | 69% | 1018.4 hPa | 0 mm | - | - | - |
| 1777613417 | 5.56° C | 69% | 1018.3 hPa | 0 mm | - | - | - |
| 1777611917 | 4.44° C | 78% | 1018.4 hPa | 0 mm | - | - | - |
| 1777610717 | 5° C | 77% | 1018.3 hPa | 0 mm | - | - | - |
| 1777610117 | 5° C | 76% | 1018.5 hPa | 0 mm | - | - | - |
| 1777609817 | 5° C | 75% | 1018.4 hPa | 0 mm | - | - | - |
| 1777609257 | 5° C | 73% | 1018.5 hPa | 0 mm | - | - | - |
| 1777608617 | 5.56° C | 72% | 1018.4 hPa | 0 mm | - | - | - |
| 1777608317 | 5.56° C | 71% | 1018.5 hPa | 0 mm | - | - | - |
| 1777607438 | 5° C | 67% | 1018.4 hPa | 0 mm | - | - | - |
| 1777607137 | 5° C | 68% | 1018.7 hPa | 0 mm | - | - | - |
| 1777606217 | 5° C | 71% | 1018.8 hPa | 0 mm | - | - | - |
| 1777601717 | 7.78° C | 59% | 1018.4 hPa | 0 mm | - | - | - |
| 1777597517 | 11.11° C | 46% | 1018.1 hPa | 0 mm | - | - | - |
| 1777593017 | 12.78° C | 43% | 1017.9 hPa | 0 mm | - | - | - |
| 1777591817 | 13.33° C | 44% | 1018 hPa | 0 mm | - | - | - |
| 1777590917 | 13.33° C | 43% | 1017.9 hPa | 0 mm | - | - | - |
| 1777588817 | 12.22° C | 47% | 1017.6 hPa | 0 mm | - | - | - |
| 1777587917 | 12.78° C | 44% | 1017.7 hPa | 0 mm | - | - | - |
| 1777584937 | 12.78° C | 48% | 1017.9 hPa | 0 mm | - | - | - |
| 1777584017 | 13.33° C | 49% | 1018 hPa | 0 mm | - | - | - |
* Rain latest hour (hover to see other rain measurements)
** Current wind speed in m/s (hover to see current wind gust speed)